Time;durP1;ratioP1;P1;durP2;ratioP2;P2;SDS_P1;SDS_P2;PMS_P1;PMS_P2;Temp;Humidity;BMP_temperature;BMP_pressure;BME280_temperature;BME280_humidity;BME280_pressure;Samples;Min_cycle;Max_cycle;Signal;HPM_P1;HPM_P2
2022/05/12 00:00:36;;;;;;;10.57;2.95;;;;;;;12.55;80.27;101342.13;4824606;29;20115;-82
2022/05/12 00:03:05;;;;;;;10.98;3.25;;;;;;;12.72;80.22;101382.53;4824562;29;20109;-86
2022/05/12 00:05:30;;;;;;;10.18;3.45;;;;;;;12.68;80.39;101386.22;4824356;29;20030;-84
2022/05/12 00:07:56;;;;;;;9.45;2.90;;;;;;;12.63;80.35;101388.28;4824572;29;20052;-83
2022/05/12 00:10:24;;;;;;;8.57;2.70;;;;;;;12.58;80.44;101393.72;4824560;29;20031;-84
2022/05/12 00:12:50;;;;;;;7.85;2.70;;;;;;;12.21;80.44;101346.00;4824571;29;20022;-85
2022/05/12 00:15:28;;;;;;;13.52;2.90;;;;;;;12.46;80.50;101391.06;4824551;29;20109;-85
2022/05/12 00:17:54;;;;;;;10.73;2.92;;;;;;;12.41;80.57;101401.75;4824447;29;20058;-85
2022/05/12 00:20:21;;;;;;;11.63;2.58;;;;;;;12.22;80.74;101377.88;4824137;29;20490;-81
2022/05/12 00:22:47;;;;;;;11.23;3.08;;;;;;;12.33;80.41;101396.19;4807976;29;20042;-84
2022/05/12 00:25:21;;;;;;;11.70;2.60;;;;;;;12.26;80.58;101397.47;4823992;29;20049;-84
2022/05/12 00:27:47;;;;;;;13.48;2.92;;;;;;;11.97;80.80;101378.53;4824182;29;20458;-85
2022/05/12 00:30:13;;;;;;;9.25;2.30;;;;;;;11.90;80.43;101367.72;4824349;29;20058;-85
2022/05/12 00:32:42;;;;;;;6.65;2.15;;;;;;;12.10;80.64;101412.31;4824124;29;20038;-83
2022/05/12 00:35:09;;;;;;;8.77;2.45;;;;;;;12.05;80.58;101410.81;4824577;29;20356;-84
2022/05/12 00:37:34;;;;;;;9.05;2.40;;;;;;;12.02;80.79;101413.59;4824256;29;20038;-84
2022/05/12 00:40:00;;;;;;;9.20;2.83;;;;;;;12.03;80.78;101428.19;4824043;29;20035;-85
2022/05/12 00:42:26;;;;;;;8.48;2.60;;;;;;;11.94;80.81;101431.31;4824064;29;20110;-86
2022/05/12 00:44:51;;;;;;;7.75;2.55;;;;;;;11.89;80.89;101430.75;4824064;29;20071;-84
2022/05/12 00:47:17;;;;;;;7.53;2.63;;;;;;;11.87;81.10;101434.34;4823935;29;20026;-79
2022/05/12 00:49:45;;;;;;;10.93;2.47;;;;;;;11.84;81.06;101432.78;4824028;29;20479;-86
2022/05/12 00:52:20;;;;;;;7.97;2.65;;;;;;;11.61;81.06;101409.97;4824347;29;20050;-85
2022/05/12 00:55:00;;;;;;;10.70;3.03;;;;;;;11.72;81.27;101431.72;4823967;29;20038;-85
2022/05/12 00:57:32;;;;;;;8.88;2.45;;;;;;;11.28;81.30;101371.34;4823939;29;20450;-84
2022/05/12 00:59:58;;;;;;;7.88;2.35;;;;;;;11.58;81.51;101442.00;4823822;29;20068;-85
2022/05/12 01:02:26;;;;;;;8.25;2.40;;;;;;;11.29;81.67;101412.63;4823576;29;20034;-85
2022/05/12 01:04:56;;;;;;;9.45;2.70;;;;;;;11.33;81.54;101408.13;4823849;29;20109;-85
2022/05/12 01:07:21;;;;;;;6.03;2.10;;;;;;;11.49;81.58;101439.94;4823770;29;20041;-84
2022/05/12 01:09:47;;;;;;;7.05;2.55;;;;;;;11.44;81.58;101447.16;4823812;29;20026;-82
2022/05/12 01:12:12;;;;;;;5.63;1.90;;;;;;;11.41;81.54;101444.75;4823976;29;20035;-81
2022/05/12 01:14:38;;;;;;;5.82;1.90;;;;;;;11.35;81.53;101438.16;4823728;29;20463;-82
2022/05/12 01:17:04;;;;;;;6.47;2.20;;;;;;;11.35;81.66;101461.44;4823520;29;20391;-84
2022/05/12 01:19:33;;;;;;;6.85;2.05;;;;;;;11.18;81.73;101433.09;4825146;29;20099;-85
2022/05/12 01:21:59;;;;;;;5.53;1.90;;;;;;;11.23;81.73;101454.38;4827499;29;20066;-84
2022/05/12 01:24:42;;;;;;;6.05;2.17;;;;;;;11.22;81.51;101462.22;4827421;29;20109;-85
2022/05/12 01:27:19;;;;;;;6.15;2.17;;;;;;;11.12;82.11;101460.13;4827164;29;20046;-86
2022/05/12 01:29:56;;;;;;;5.25;1.80;;;;;;;11.06;82.00;101463.03;4827205;29;20030;-82
2022/05/12 01:32:24;;;;;;;4.57;2.00;;;;;;;11.07;82.20;101471.63;4827306;29;20030;-82
2022/05/12 01:34:52;;;;;;;9.43;2.45;;;;;;;10.93;82.41;101458.63;4827317;29;20040;-82
2022/05/12 01:37:18;;;;;;;6.43;1.92;;;;;;;10.88;82.16;101454.53;4827210;29;20058;-86
2022/05/12 01:39:43;;;;;;;4.88;2.25;;;;;;;10.95;82.48;101483.47;4826944;29;20464;-85
2022/05/12 01:42:10;;;;;;;5.97;2.13;;;;;;;10.93;82.54;101487.88;4826974;29;20411;-83
2022/05/12 01:44:37;;;;;;;6.28;2.00;;;;;;;10.88;82.63;101490.72;4826991;29;20062;-84
2022/05/12 01:47:03;;;;;;;5.40;1.85;;;;;;;10.65;82.91;101467.03;4826922;29;20113;-84
2022/05/12 01:49:29;;;;;;;5.55;2.00;;;;;;;10.73;82.91;101490.72;4826930;29;20026;-84
2022/05/12 01:51:56;;;;;;;5.55;1.70;;;;;;;10.74;82.92;101500.13;4826904;29;20441;-84
2022/05/12 01:54:23;;;;;;;7.32;2.47;;;;;;;10.32;83.22;101439.47;4826824;29;20030;-85
2022/05/12 01:56:48;;;;;;;5.50;1.92;;;;;;;10.63;83.52;101498.94;4826459;29;20548;-85
2022/05/12 01:59:14;;;;;;;10.10;2.65;;;;;;;10.52;83.36;101490.06;4826613;29;20080;-86
2022/05/12 02:01:39;;;;;;;6.95;2.30;;;;;;;10.55;83.56;101495.09;4826953;29;20030;-79
2022/05/12 02:04:05;;;;;;;5.43;1.90;;;;;;;10.48;83.78;101504.88;4826858;29;20109;-82
2022/05/12 02:06:31;;;;;;;5.78;2.20;;;;;;;10.28;83.72;101497.34;4826666;29;20069;-86
2022/05/12 02:08:57;;;;;;;5.00;1.83;;;;;;;10.14;83.93;101479.13;4826556;29;20114;-81
2022/05/12 02:11:23;;;;;;;5.90;2.20;;;;;;;10.26;84.49;101527.56;4826178;29;20048;-84
2022/05/12 02:13:48;;;;;;;6.35;2.30;;;;;;;10.23;84.51;101525.97;4826349;29;20034;-87
2022/05/12 02:16:14;;;;;;;6.63;2.30;;;;;;;10.06;84.68;101500.97;4826734;29;20045;-84
2022/05/12 02:18:39;;;;;;;8.32;2.58;;;;;;;10.20;84.56;101527.81;4827262;29;20026;-86
2022/05/12 02:21:04;;;;;;;5.50;1.98;;;;;;;9.85;85.01;101480.56;4827247;29;20030;-86
2022/05/12 02:23:30;;;;;;;7.38;2.42;;;;;;;10.02;85.35;101524.41;4826316;29;20109;-86
2022/05/12 02:25:55;;;;;;;11.05;2.67;;;;;;;9.98;85.38;101531.47;4825933;29;20050;-86
2022/05/12 02:28:21;;;;;;;8.52;2.50;;;;;;;9.82;85.75;101503.91;4826071;29;20030;-86
2022/05/12 02:30:46;;;;;;;10.23;2.50;;;;;;;10.00;85.82;101544.28;4826349;29;20027;-85
2022/05/12 02:33:12;;;;;;;6.03;2.30;;;;;;;9.96;86.14;101535.88;4826238;29;20038;-86
2022/05/12 02:35:38;;;;;;;8.80;2.70;;;;;;;9.94;86.12;101548.03;4826256;29;20027;-86
2022/05/12 02:38:06;;;;;;;5.93;2.67;;;;;;;9.92;86.71;101554.16;4826058;29;20029;-86
2022/05/12 02:40:31;;;;;;;8.63;2.58;;;;;;;9.97;87.14;101553.03;4825691;29;20039;-85
2022/05/12 02:42:57;;;;;;;11.93;3.13;;;;;;;9.99;87.11;101560.69;4826103;29;20034;-85
2022/05/12 02:45:23;;;;;;;7.40;2.85;;;;;;;9.81;86.86;101536.63;4826410;29;20037;-84
2022/05/12 02:47:49;;;;;;;7.88;3.03;;;;;;;9.97;87.18;101563.34;4826033;29;20026;-86
2022/05/12 02:50:15;;;;;;;8.68;3.08;;;;;;;9.92;87.04;101565.31;4826113;29;20042;-86
2022/05/12 02:52:41;;;;;;;7.28;3.28;;;;;;;9.88;86.85;101562.97;4825942;29;20041;-86
2022/05/12 02:55:07;;;;;;;9.32;3.42;;;;;;;9.85;87.46;101561.38;4809590;29;20038;-86
2022/05/12 02:57:33;;;;;;;10.18;3.67;;;;;;;9.87;87.97;101562.13;4809306;29;20053;-85
2022/05/12 02:59:59;;;;;;;10.23;3.33;;;;;;;9.88;88.15;101563.78;4825633;29;20042;-86
2022/05/12 03:02:24;;;;;;;12.25;4.05;;;;;;;9.84;88.18;101564.88;4825892;29;20387;-86
2022/05/12 03:04:49;;;;;;;15.73;4.10;;;;;;;9.77;87.98;101550.59;4825728;29;20022;-86
2022/05/12 03:07:15;;;;;;;10.55;3.25;;;;;;;9.73;88.20;101549.03;4825702;29;20026;-86
2022/05/12 03:09:40;;;;;;;9.77;3.40;;;;;;;9.62;88.19;101535.81;4825769;29;20163;-84
2022/05/12 03:12:06;;;;;;;10.15;3.40;;;;;;;9.62;88.14;101539.25;4825382;29;20380;-84
2022/05/12 03:14:34;;;;;;;10.98;3.50;;;;;;;9.86;88.81;101577.69;4825402;29;20108;-85
2022/05/12 03:16:59;;;;;;;11.02;3.72;;;;;;;9.83;88.62;101576.06;4825671;29;20549;-86
2022/05/12 03:19:25;;;;;;;16.35;4.35;;;;;;;9.77;88.90;101568.63;4825447;29;20030;-86
2022/05/12 03:21:51;;;;;;;12.95;4.72;;;;;;;9.83;88.94;101586.38;4825512;29;20467;-86
2022/05/12 03:24:17;;;;;;;16.65;4.70;;;;;;;9.83;89.33;101582.97;4825528;29;20030;-84
2022/05/12 03:26:43;;;;;;;13.10;4.45;;;;;;;9.83;89.34;101577.81;4825190;29;20049;-86
2022/05/12 03:29:08;;;;;;;16.48;4.53;;;;;;;9.78;89.25;101578.03;4825290;29;20039;-86
2022/05/12 03:31:33;;;;;;;12.75;4.53;;;;;;;9.53;89.12;101542.25;4825623;29;20086;-85
2022/05/12 03:34:00;;;;;;;14.02;4.65;;;;;;;9.60;89.37;101574.59;4825245;29;20038;-85
2022/05/12 03:36:25;;;;;;;15.80;5.03;;;;;;;9.62;89.77;101579.66;4825182;29;20444;-85
2022/05/12 03:38:51;;;;;;;13.15;5.72;;;;;;;9.63;90.26;101589.91;4825237;29;20077;-84
2022/05/12 03:41:16;;;;;;;16.85;6.10;;;;;;;9.46;90.09;101569.25;4824702;29;20049;-84
2022/05/12 03:46:25;;;;;;;21.33;6.60;;;;;;;9.43;91.00;101574.53;4825377;29;20114;-83
2022/05/12 03:48:51;;;;;;;18.20;7.40;;;;;;;9.32;91.51;101559.56;4825151;29;20110;-85
2022/05/12 03:51:17;;;;;;;21.33;7.60;;;;;;;9.63;91.64;101605.38;4824838;29;20090;-84
2022/05/12 03:53:42;;;;;;;18.92;7.97;;;;;;;9.68;92.26;101615.50;4825074;29;20030;-84
2022/05/12 03:56:08;;;;;;;20.95;8.57;;;;;;;9.52;92.36;101594.72;4824806;29;20031;-84
2022/05/12 03:58:34;;;;;;;19.95;8.90;;;;;;;9.70;92.70;101611.94;4824732;29;20391;-86
2022/05/12 04:01:01;;;;;;;23.70;8.25;;;;;;;9.70;92.55;101622.25;4825015;29;20034;-85
2022/05/12 04:03:27;;;;;;;22.75;9.95;;;;;;;9.50;92.95;101588.81;4824551;29;20026;-85
2022/05/12 04:05:55;;;;;;;27.60;9.80;;;;;;;9.66;92.98;101622.47;4824804;29;20121;-86
2022/05/12 04:08:21;;;;;;;24.67;10.73;;;;;;;9.60;93.24;101610.69;4824935;29;20041;-85
2022/05/12 04:10:48;;;;;;;24.42;10.70;;;;;;;9.77;93.36;101633.94;4824677;29;20037;-85
2022/05/12 04:13:16;;;;;;;26.38;10.18;;;;;;;9.78;93.08;101639.94;4824603;29;20042;-85
2022/05/12 04:15:41;;;;;;;23.38;10.75;;;;;;;9.76;93.07;101639.19;4824549;29;20105;-86
2022/05/12 04:18:07;;;;;;;21.55;10.20;;;;;;;9.81;93.17;101644.94;4824500;29;20113;-84
2022/05/12 04:20:37;;;;;;;18.52;10.02;;;;;;;9.85;93.14;101645.66;4824354;29;20034;-85
2022/05/12 04:23:03;;;;;;;22.95;10.88;;;;;;;9.85;92.94;101649.06;4824594;29;20034;-81
2022/05/12 04:25:28;;;;;;;19.98;9.77;;;;;;;9.88;92.91;101651.50;4824453;29;20054;-83
2022/05/12 04:27:54;;;;;;;24.20;11.20;;;;;;;9.80;93.04;101632.97;4824303;29;20052;-82
2022/05/12 04:30:24;;;;;;;28.08;11.20;;;;;;;9.93;93.00;101653.84;4824388;29;20110;-82
2022/05/12 04:32:50;;;;;;;31.27;12.50;;;;;;;9.96;92.99;101657.16;4807999;29;20468;-84
2022/05/12 04:35:16;;;;;;;25.90;11.55;;;;;;;10.02;92.78;101668.91;4824515;29;20106;-85
2022/05/12 04:37:44;;;;;;;27.38;12.18;;;;;;;10.10;93.03;101663.38;4824603;29;20475;-85
2022/05/12 04:40:17;;;;;;;25.13;11.80;;;;;;;10.17;92.72;101669.94;4824232;29;20437;-84
2022/05/12 04:42:43;;;;;;;26.48;13.30;;;;;;;10.16;92.66;101658.78;4824236;29;20027;-85
2022/05/12 04:45:10;;;;;;;23.45;12.93;;;;;;;10.24;92.65;101661.88;4824444;29;20383;-85
2022/05/12 04:47:37;;;;;;;28.30;12.82;;;;;;;10.37;92.83;101676.75;4824037;29;20031;-85
2022/05/12 04:50:05;;;;;;;24.55;13.07;;;;;;;10.25;92.66;101645.47;4824310;29;20034;-86
2022/05/12 04:52:31;;;;;;;30.88;13.43;;;;;;;10.34;92.29;101645.03;4824031;29;20376;-80
2022/05/12 04:54:57;;;;;;;30.40;13.75;;;;;;;10.63;92.02;101682.31;4823146;29;20056;-84
2022/05/12 04:57:23;;;;;;;33.30;13.82;;;;;;;10.56;91.75;101656.88;4823868;29;20026;-84
2022/05/12 04:59:51;;;;;;;26.38;13.65;;;;;;;10.92;91.19;101651.59;4823893;29;20184;-86
2022/05/12 05:02:17;;;;;;;32.88;13.30;;;;;;;11.96;87.68;101671.94;4824348;29;20033;-87
2022/05/12 05:04:42;;;;;;;27.55;13.00;;;;;;;12.75;82.77;101625.09;4824207;29;20038;-86
2022/05/12 05:07:10;;;;;;;27.00;12.57;;;;;;;13.67;78.53;101644.53;4824014;29;20484;-86
2022/05/12 05:09:36;;;;;;;26.80;13.27;;;;;;;14.20;75.75;101642.03;4823930;29;20035;-84
2022/05/12 05:12:02;;;;;;;27.30;12.73;;;;;;;14.40;73.34;101638.94;4823701;29;20035;-83
2022/05/12 05:14:27;;;;;;;26.05;13.15;;;;;;;15.10;72.33;101709.66;4823659;29;20031;-85
2022/05/12 05:16:52;;;;;;;22.25;12.35;;;;;;;15.71;70.21;101715.03;4824050;29;20042;-86
2022/05/12 05:19:18;;;;;;;28.40;13.10;;;;;;;15.94;68.21;101669.13;4823826;29;20042;-84
2022/05/12 05:21:43;;;;;;;23.25;13.50;;;;;;;16.16;67.75;101703.09;4823831;29;20049;-85
2022/05/12 05:24:08;;;;;;;23.42;12.75;;;;;;;15.87;67.48;101660.91;4823827;29;20067;-85
2022/05/12 05:26:34;;;;;;;24.65;14.20;;;;;;;16.38;67.17;101712.78;4823518;29;20047;-82
2022/05/12 05:29:01;;;;;;;23.83;12.50;;;;;;;16.75;65.49;101704.88;4823336;29;20037;-81
2022/05/12 05:31:26;;;;;;;23.85;13.15;;;;;;;17.31;63.96;101715.41;4823798;29;20034;-85
2022/05/12 05:33:51;;;;;;;32.55;13.63;;;;;;;17.83;61.87;101721.81;4823703;29;20038;-85
2022/05/12 05:36:17;;;;;;;24.17;13.30;;;;;;;18.33;61.19;101728.19;4823635;29;20035;-83
2022/05/12 05:38:42;;;;;;;23.98;13.75;;;;;;;18.33;60.21;101710.72;4823751;29;20062;-83
2022/05/12 05:41:09;;;;;;;23.42;12.95;;;;;;;18.52;59.52;101730.97;4823466;29;20121;-85
2022/05/12 05:43:35;;;;;;;24.35;14.32;;;;;;;18.74;58.98;101721.34;4823261;29;20116;-84
2022/05/12 05:46:00;;;;;;;23.17;13.32;;;;;;;19.28;58.07;101738.63;4823502;29;20034;-83
2022/05/12 05:48:26;;;;;;;24.55;14.07;;;;;;;19.53;57.10;101750.44;4823491;29;20026;-84
2022/05/12 05:53:38;;;;;;;23.65;14.23;;;;;;;20.22;54.56;101750.50;4823866;29;20042;-84
2022/05/12 05:56:07;;;;;;;24.90;14.98;;;;;;;20.31;53.76;101755.75;4823256;29;20031;-84
2022/05/12 05:58:33;;;;;;;23.75;14.20;;;;;;;20.03;54.47;101772.25;4823240;29;20542;-83
2022/05/12 06:00:58;;;;;;;25.92;14.90;;;;;;;20.02;54.27;101747.00;4807050;29;20050;-80
2022/05/12 06:03:24;;;;;;;24.20;14.73;;;;;;;20.24;53.71;101759.03;4822666;29;20459;-80
2022/05/12 06:05:50;;;;;;;26.55;14.68;;;;;;;20.59;53.56;101776.91;4825858;29;20038;-79
2022/05/12 06:08:20;;;;;;;24.60;15.18;;;;;;;20.91;53.09;101787.09;4826825;29;20109;-82
2022/05/12 06:10:46;;;;;;;27.77;15.13;;;;;;;21.01;51.96;101787.91;4826702;29;20038;-81
2022/05/12 06:13:13;;;;;;;23.80;14.77;;;;;;;21.13;51.42;101767.56;4826181;29;20030;-80
2022/05/12 06:15:39;;;;;;;22.45;14.15;;;;;;;21.31;50.82;101789.53;4826275;29;20074;-82
2022/05/12 06:18:14;;;;;;;25.90;14.00;;;;;;;21.55;51.07;101767.19;4826286;29;20087;-81
2022/05/12 06:20:44;;;;;;;28.90;15.05;;;;;;;21.84;48.95;101762.63;4826510;29;20042;-81
2022/05/12 06:23:11;;;;;;;23.10;13.77;;;;;;;21.94;48.75;101804.63;4826265;29;20026;-81
2022/05/12 06:25:37;;;;;;;21.00;13.45;;;;;;;21.67;49.14;101776.53;4825803;29;20046;-81
2022/05/12 06:28:03;;;;;;;22.27;13.52;;;;;;;21.84;48.45;101794.16;4826306;29;20042;-81
2022/05/12 06:30:29;;;;;;;20.27;13.38;;;;;;;22.08;48.13;101779.66;4826092;29;20073;-81
2022/05/12 06:32:56;;;;;;;20.95;12.75;;;;;;;22.44;47.87;101812.91;4826182;29;20060;-81
2022/05/12 06:35:23;;;;;;;21.70;11.98;;;;;;;22.76;45.82;101785.22;4826042;29;20035;-82
2022/05/12 06:37:49;;;;;;;18.20;11.77;;;;;;;23.21;45.12;101807.97;4825935;29;20053;-81
2022/05/12 06:40:15;;;;;;;20.05;11.98;;;;;;;23.40;44.89;101802.44;4826004;29;20037;-82
2022/05/12 06:42:41;;;;;;;18.65;11.93;;;;;;;23.66;44.31;101810.38;4825825;29;20471;-81
2022/05/12 06:45:08;;;;;;;21.60;12.63;;;;;;;24.05;43.27;101823.84;4817093;29;20027;-83
2022/05/12 06:47:33;;;;;;;17.52;10.80;;;;;;;24.25;42.72;101817.31;4807528;29;20022;-82
2022/05/12 06:50:01;;;;;;;21.70;12.55;;;;;;;24.04;43.08;101815.13;4808154;29;20114;-82
2022/05/12 06:52:27;;;;;;;21.70;11.75;;;;;;;24.20;42.36;101798.50;4807770;29;20462;-83
2022/05/12 06:54:52;;;;;;;18.98;10.25;;;;;;;24.22;40.73;101832.66;4807731;29;20037;-82
2022/05/12 06:57:27;;;;;;;17.27;8.93;;;;;;;23.55;42.76;101827.25;4902043;24;20133;-81
2022/05/12 06:59:54;;;;;;;15.43;9.52;;;;;;;23.35;42.12;101802.94;4843991;29;20069;-82
2022/05/12 07:02:19;;;;;;;19.05;10.45;;;;;;;23.63;41.55;101813.31;4844162;29;20399;-80
2022/05/12 07:04:46;;;;;;;17.85;10.07;;;;;;;23.89;41.01;101821.16;4844155;29;20026;-80
2022/05/12 07:07:12;;;;;;;20.30;11.00;;;;;;;24.16;41.92;101828.84;4843968;29;20065;-81
2022/05/12 07:09:38;;;;;;;18.40;10.43;;;;;;;24.53;39.88;101838.19;4844168;29;20033;-81
2022/05/12 07:12:04;;;;;;;18.10;10.65;;;;;;;23.81;41.24;101842.25;4843848;29;20455;-82
2022/05/12 07:14:31;;;;;;;17.65;10.55;;;;;;;22.76;43.22;101838.72;4846071;29;20040;-83
2022/05/12 07:16:57;;;;;;;17.45;10.27;;;;;;;22.92;44.81;101835.44;4844633;29;20030;-81
2022/05/12 07:19:22;;;;;;;16.95;9.70;;;;;;;22.67;43.13;101829.09;4843768;29;20375;-82
2022/05/12 07:27:17;;;;;;;19.67;11.32;;;;;;;21.62;46.08;101852.34;4844090;29;20061;-83
2022/05/12 07:29:43;;;;;;;20.40;10.70;;;;;;;20.62;49.25;101827.31;4843382;29;20037;-82
2022/05/12 07:32:08;;;;;;;16.60;8.85;;;;;;;19.94;50.27;101870.06;4843309;29;20033;-82
2022/05/12 07:34:34;;;;;;;15.10;8.18;;;;;;;19.08;51.17;101861.56;4843402;29;20034;-82
2022/05/12 07:37:00;;;;;;;16.92;9.00;;;;;;;18.57;53.08;101866.59;4843319;29;20101;-82
2022/05/12 07:39:29;;;;;;;15.85;8.88;;;;;;;18.20;54.68;101835.56;4843295;29;20494;-82
2022/05/12 07:42:00;;;;;;;14.63;7.85;;;;;;;17.94;54.30;101823.69;4843389;29;20040;-83
2022/05/12 07:44:34;;;;;;;;;;;;;;;18.41;53.31;101858.34;4843569;29;20026;-82
2022/05/12 07:47:13;;;;;;;16.60;8.45;;;;;;;18.36;54.83;101869.13;4843175;29;19923;-83
2022/05/12 07:49:39;;;;;;;14.20;8.20;;;;;;;18.15;54.13;101839.47;4843200;29;20029;-82
2022/05/12 07:52:07;;;;;;;15.90;8.32;;;;;;;18.57;53.40;101875.28;4843076;29;20026;-82
2022/05/12 07:54:33;;;;;;;21.65;9.88;;;;;;;18.72;53.64;101867.19;4842983;29;20121;-82
2022/05/12 07:56:58;;;;;;;17.95;7.30;;;;;;;19.12;54.27;101872.63;4843091;29;20439;-83
2022/05/12 07:59:24;;;;;;;14.75;8.10;;;;;;;19.14;51.26;101853.19;4842806;29;20030;-80
2022/05/12 08:01:50;;;;;;;14.10;7.20;;;;;;;19.32;52.53;101866.56;4842850;29;20030;-83
2022/05/12 08:04:15;;;;;;;12.63;6.47;;;;;;;19.33;51.62;101852.50;4843067;29;20082;-80
2022/05/12 08:06:42;;;;;;;12.23;6.35;;;;;;;19.30;50.89;101862.41;4842832;29;20062;-81
2022/05/12 08:09:08;;;;;;;10.70;5.30;;;;;;;19.19;50.63;101869.38;4843101;29;20029;-80
2022/05/12 08:11:33;;;;;;;8.90;5.45;;;;;;;19.10;52.26;101880.59;4843000;29;20045;-80
2022/05/12 08:13:58;;;;;;;10.23;4.95;;;;;;;18.84;52.65;101879.28;4842658;29;20021;-82
2022/05/12 08:16:24;;;;;;;14.63;5.20;;;;;;;18.36;52.49;101866.53;4842798;29;20117;-80
2022/05/12 08:18:50;;;;;;;10.25;3.92;;;;;;;18.18;54.56;101886.28;4842734;29;20108;-81
2022/05/12 08:21:17;;;;;;;9.52;4.60;;;;;;;17.73;56.10;101866.22;4842545;29;20030;-80
2022/05/12 08:23:43;;;;;;;10.93;4.82;;;;;;;17.56;52.95;101850.13;4842587;29;20033;-80
2022/05/12 08:26:09;;;;;;;9.55;4.38;;;;;;;17.98;54.28;101888.66;4842580;29;20045;-82
2022/05/12 08:28:34;;;;;;;9.15;3.88;;;;;;;17.93;51.32;101835.09;4842203;29;20026;-81
2022/05/12 08:30:59;;;;;;;8.90;3.80;;;;;;;18.50;48.94;101888.97;4842402;29;20036;-78
2022/05/12 08:33:25;;;;;;;9.38;3.50;;;;;;;18.39;49.57;101863.69;4842323;29;20057;-77
2022/05/12 08:35:51;;;;;;;9.98;3.13;;;;;;;18.35;48.74;101891.84;4842300;29;20034;-77
2022/05/12 08:38:19;;;;;;;9.23;3.75;;;;;;;18.22;52.04;101892.94;4842380;29;20065;-78
2022/05/12 08:41:16;;;;;;;7.28;3.63;;;;;;;18.00;50.54;101878.94;4842122;29;20026;-78
2022/05/12 08:43:44;;;;;;;9.02;3.50;;;;;;;18.42;54.37;101886.97;4842302;29;20033;-77
2022/05/12 08:46:14;;;;;;;9.35;3.42;;;;;;;18.56;48.40;101885.84;4841981;29;20037;-79
2022/05/12 08:48:43;;;;;;;6.00;3.30;;;;;;;18.65;46.88;101881.72;4842106;29;20025;-79
2022/05/12 08:51:12;;;;;;;6.47;2.63;;;;;;;18.79;45.67;101890.13;4842346;29;20026;-79
2022/05/12 08:53:59;;;;;;;6.80;2.85;;;;;;;18.81;51.08;101890.84;4842282;29;20493;-78
2022/05/12 08:56:25;;;;;;;9.82;3.00;;;;;;;18.45;46.72;101881.50;4842324;29;20081;-77
2022/05/12 08:58:55;;;;;;;7.18;2.83;;;;;;;18.33;48.91;101900.78;4841776;29;20046;-77
2022/05/12 09:01:44;;;;;;;7.70;2.90;;;;;;;18.15;49.34;101895.19;4841954;29;20069;-77
2022/05/12 09:04:34;;;;;;;7.72;2.92;;;;;;;18.09;51.32;101900.06;4842170;29;20094;-79
2022/05/12 09:07:12;;;;;;;6.57;2.90;;;;;;;18.16;48.96;101909.94;4842090;29;20030;-79
2022/05/12 09:09:46;;;;;;;9.15;2.50;;;;;;;18.32;48.85;101906.97;4841947;29;20042;-78
2022/05/12 09:12:42;;;;;;;8.57;2.58;;;;;;;18.26;48.09;101913.47;4841993;29;20487;-78
2022/05/12 09:15:27;;;;;;;5.22;2.40;;;;;;;17.88;45.76;101890.31;4841884;29;20078;-77
2022/05/12 09:18:13;;;;;;;5.15;1.98;;;;;;;18.20;48.32;101907.94;4841748;29;20042;-79
2022/05/12 09:20:39;;;;;;;7.68;2.67;;;;;;;18.36;46.95;101908.38;4841855;29;20038;-78
2022/05/12 09:23:06;;;;;;;8.63;2.88;;;;;;;18.10;46.74;101902.56;4841943;29;20104;-80
2022/05/12 09:25:33;;;;;;;8.82;2.80;;;;;;;18.35;48.67;101914.56;4841933;29;20030;-81
2022/05/12 09:28:16;;;;;;;6.72;2.60;;;;;;;18.26;48.07;101916.09;4841718;29;20113;-77
2022/05/12 09:30:42;;;;;;;7.88;2.53;;;;;;;18.41;46.95;101913.25;4841719;29;20542;-79
2022/05/12 09:33:07;;;;;;;5.40;2.03;;;;;;;18.43;47.93;101909.56;4841784;29;20112;-79
2022/05/12 09:35:33;;;;;;;8.25;2.60;;;;;;;18.25;46.50;101890.91;4841924;29;20086;-79
2022/05/12 09:37:58;;;;;;;7.97;2.38;;;;;;;18.34;48.09;101911.09;4841887;29;20363;-78
2022/05/12 09:40:39;;;;;;;6.63;2.10;;;;;;;18.35;46.78;101910.16;4842987;29;20059;-79
2022/05/12 09:43:24;;;;;;;5.53;2.33;;;;;;;18.37;46.96;101898.75;4845224;29;20041;-79
2022/05/12 09:45:58;;;;;;;8.85;2.95;;;;;;;18.29;45.72;101912.44;4845321;29;20034;-78
2022/05/12 09:48:36;;;;;;;5.68;2.30;;;;;;;18.21;46.59;101909.59;4845314;29;20110;-78
2022/05/12 09:51:22;;;;;;;10.10;2.33;;;;;;;18.42;47.41;101901.84;4845414;29;20079;-79
2022/05/12 09:53:50;;;;;;;7.20;2.35;;;;;;;18.44;42.22;101884.22;4845306;29;20030;-79
2022/05/12 09:56:25;;;;;;;5.43;2.00;;;;;;;18.81;45.96;101901.28;4845122;29;20033;-79
2022/05/12 09:59:18;;;;;;;7.68;2.05;;;;;;;18.88;44.00;101896.41;4845154;29;20129;-78
2022/05/12 10:02:00;;;;;;;7.85;2.50;;;;;;;19.02;43.41;101898.72;4835087;29;20042;-79
2022/05/12 10:08:06;;;;;;;5.10;2.00;;;;;;;19.27;42.75;101881.84;4845423;29;20107;-79
2022/05/12 10:10:27;;;;;;;4.85;1.95;;;;;;;19.12;43.03;101876.06;4841227;29;20129;-78
2022/05/12 10:13:00;;;;;;;6.03;2.10;;;;;;;19.33;43.11;101897.03;4845151;29;20045;-77
2022/05/12 10:15:32;;;;;;;8.93;2.50;;;;;;;19.45;41.27;101903.84;4844822;29;20037;-79
2022/05/12 10:18:02;;;;;;;5.82;2.00;;;;;;;19.71;42.12;101904.31;4844674;29;20113;-78
2022/05/12 10:20:29;;;;;;;6.88;2.08;;;;;;;19.80;39.64;101888.78;4844828;29;20050;-78
2022/05/12 10:23:26;;;;;;;7.60;2.00;;;;;;;20.07;40.46;101896.91;4844603;29;20030;-79
2022/05/12 10:26:02;;;;;;;5.75;2.13;;;;;;;20.05;38.91;101880.47;4769478;30;20043;-78
2022/05/12 10:28:47;;;;;;;7.25;2.05;;;;;;;20.15;39.74;101906.72;4770285;30;20397;-78
2022/05/12 10:31:34;;;;;;;7.38;2.20;;;;;;;19.99;39.48;101894.94;4770224;30;20050;-77
2022/05/12 10:34:11;;;;;;;5.75;1.98;;;;;;;19.87;41.63;101897.78;4770274;30;20485;-80
2022/05/12 10:37:04;;;;;;;5.28;1.90;;;;;;;19.91;39.82;101904.44;4770217;30;20048;-77
2022/05/12 10:39:50;;;;;;;5.97;1.67;;;;;;;20.13;38.85;101899.00;4769993;30;20039;-79
2022/05/12 10:42:18;;;;;;;4.55;2.10;;;;;;;20.06;39.47;101897.88;4770026;30;20093;-80
2022/05/12 10:44:49;;;;;;;4.97;1.98;;;;;;;20.01;40.02;101897.44;4769917;30;20063;-79
2022/05/12 10:47:14;;;;;;;;;;;;;;;20.13;38.88;101895.53;4770235;30;20036;-80
2022/05/12 10:49:53;;;;;;;6.80;1.92;;;;;;;20.03;39.30;101892.88;4769978;30;19918;-82
2022/05/12 10:52:21;;;;;;;6.75;1.70;;;;;;;20.10;39.09;101896.63;4768486;30;20046;-79
2022/05/12 10:54:46;;;;;;;5.28;1.90;;;;;;;19.98;38.44;101887.22;4769820;30;20032;-80
2022/05/12 10:57:50;;;;;;;5.25;1.65;;;;;;;20.00;39.00;101891.34;4768780;30;20074;-81
2022/05/12 11:00:33;;;;;;;4.38;1.65;;;;;;;19.90;39.88;101894.91;4716007;30;20576;-81
2022/05/12 11:03:13;;;;;;;7.65;1.98;;;;;;;20.03;40.07;101891.09;4727120;30;20142;-80
2022/05/12 11:05:53;;;;;;;4.00;1.90;;;;;;;20.30;39.29;101892.28;4731764;30;20039;-80
2022/05/12 11:08:28;;;;;;;5.38;1.85;;;;;;;20.23;36.70;101891.97;4732208;30;20063;-80
2022/05/12 11:10:58;;;;;;;5.65;1.77;;;;;;;19.94;37.53;101856.97;4732781;30;20531;-81
2022/05/12 11:13:32;;;;;;;7.72;2.03;;;;;;;20.11;39.51;101858.97;4733700;30;20179;-80
2022/05/12 11:16:04;;;;;;;4.88;1.75;;;;;;;20.41;38.76;101872.97;4734036;30;20052;-80
2022/05/12 11:19:06;;;;;;;4.97;1.92;;;;;;;20.65;38.71;101885.75;4733991;30;20036;-81
2022/05/12 11:21:37;;;;;;;;;;;;;;;20.83;37.73;101879.69;4734296;30;20430;-82
2022/05/12 11:24:18;;;;;;;4.63;1.88;;;;;;;20.71;37.41;101875.53;4734035;30;19961;-81
2022/05/12 11:27:03;;;;;;;7.22;2.05;;;;;;;20.76;37.70;101885.66;4733898;30;20095;-79
2022/05/12 11:29:44;;;;;;;5.22;1.73;;;;;;;20.87;34.21;101875.84;4733943;30;20040;-80
2022/05/12 11:32:21;;;;;;;5.55;2.00;;;;;;;21.02;36.87;101863.09;4733771;30;20036;-80
2022/05/12 11:34:52;;;;;;;5.45;1.80;;;;;;;21.12;36.90;101866.53;4801553;29;20380;-82
2022/05/12 11:37:55;;;;;;;4.80;2.20;;;;;;;21.28;37.53;101863.38;4825381;29;20031;-79
2022/05/12 11:40:48;;;;;;;5.25;1.88;;;;;;;21.56;35.97;101869.53;4821555;29;20545;-81
2022/05/12 11:46:25;;;;;;;9.60;2.03;;;;;;;21.04;35.62;101876.09;4825593;29;20057;-79
2022/05/12 11:48:58;;;;;;;;;;;;;;;21.10;34.00;101868.47;4825420;29;20033;-80